sensor_id;sensor_type;location;lat;lon;timestamp;P1;durP1;ratioP1;P2;durP2;ratioP2
9918;SDS011;4998;51.024;13.828;2023-04-28T00:01:20;5.67;;;4.50;;
9918;SDS011;4998;51.024;13.828;2023-04-28T00:03:47;5.87;;;5.03;;
9918;SDS011;4998;51.024;13.828;2023-04-28T00:06:14;5.70;;;5.20;;
9918;SDS011;4998;51.024;13.828;2023-04-28T00:08:41;5.47;;;4.87;;
9918;SDS011;4998;51.024;13.828;2023-04-28T00:11:10;6.30;;;4.40;;
9918;SDS011;4998;51.024;13.828;2023-04-28T00:13:37;5.40;;;4.70;;
9918;SDS011;4998;51.024;13.828;2023-04-28T00:16:04;5.20;;;4.70;;
9918;SDS011;4998;51.024;13.828;2023-04-28T00:18:32;5.80;;;4.80;;
9918;SDS011;4998;51.024;13.828;2023-04-28T00:20:59;6.70;;;4.60;;
9918;SDS011;4998;51.024;13.828;2023-04-28T00:23:26;4.53;;;4.10;;
9918;SDS011;4998;51.024;13.828;2023-04-28T00:25:54;5.07;;;4.60;;
9918;SDS011;4998;51.024;13.828;2023-04-28T00:28:23;4.53;;;4.13;;
9918;SDS011;4998;51.024;13.828;2023-04-28T00:30:50;5.00;;;4.50;;
9918;SDS011;4998;51.024;13.828;2023-04-28T00:33:17;6.40;;;4.07;;
9918;SDS011;4998;51.024;13.828;2023-04-28T00:35:44;5.20;;;4.13;;
9918;SDS011;4998;51.024;13.828;2023-04-28T00:38:11;6.20;;;5.10;;
9918;SDS011;4998;51.024;13.828;2023-04-28T00:40:38;4.80;;;4.10;;
9918;SDS011;4998;51.024;13.828;2023-04-28T00:43:05;5.33;;;4.57;;
9918;SDS011;4998;51.024;13.828;2023-04-28T00:45:34;8.70;;;5.53;;
9918;SDS011;4998;51.024;13.828;2023-04-28T00:48:01;4.67;;;4.27;;
9918;SDS011;4998;51.024;13.828;2023-04-28T00:50:28;5.80;;;4.97;;
9918;SDS011;4998;51.024;13.828;2023-04-28T00:52:55;5.07;;;4.57;;
9918;SDS011;4998;51.024;13.828;2023-04-28T00:55:22;4.77;;;4.30;;
9918;SDS011;4998;51.024;13.828;2023-04-28T00:57:51;6.47;;;4.87;;
9918;SDS011;4998;51.024;13.828;2023-04-28T01:00:21;5.53;;;4.97;;
9918;SDS011;4998;51.024;13.828;2023-04-28T01:02:50;5.27;;;4.77;;
9918;SDS011;4998;51.024;13.828;2023-04-28T01:05:18;4.50;;;4.10;;
9918;SDS011;4998;51.024;13.828;2023-04-28T01:07:46;5.33;;;4.83;;
9918;SDS011;4998;51.024;13.828;2023-04-28T01:10:13;4.30;;;4.00;;
9918;SDS011;4998;51.024;13.828;2023-04-28T01:12:40;5.80;;;5.10;;
9918;SDS011;4998;51.024;13.828;2023-04-28T01:15:07;5.10;;;4.60;;
9918;SDS011;4998;51.024;13.828;2023-04-28T01:17:41;4.63;;;4.10;;
9918;SDS011;4998;51.024;13.828;2023-04-28T01:20:10;5.60;;;4.53;;
9918;SDS011;4998;51.024;13.828;2023-04-28T01:22:37;10.00;;;4.77;;
9918;SDS011;4998;51.024;13.828;2023-04-28T01:25:06;9.60;;;4.60;;
9918;SDS011;4998;51.024;13.828;2023-04-28T01:27:33;6.20;;;4.60;;
9918;SDS011;4998;51.024;13.828;2023-04-28T01:30:00;5.47;;;4.63;;
9918;SDS011;4998;51.024;13.828;2023-04-28T01:32:27;4.53;;;4.10;;
9918;SDS011;4998;51.024;13.828;2023-04-28T01:34:54;4.90;;;4.27;;
9918;SDS011;4998;51.024;13.828;2023-04-28T01:37:21;4.83;;;4.33;;
9918;SDS011;4998;51.024;13.828;2023-04-28T01:39:49;6.47;;;4.70;;
9918;SDS011;4998;51.024;13.828;2023-04-28T01:42:17;4.93;;;4.50;;
9918;SDS011;4998;51.024;13.828;2023-04-28T01:44:44;5.50;;;5.00;;
9918;SDS011;4998;51.024;13.828;2023-04-28T01:47:11;4.70;;;4.30;;
9918;SDS011;4998;51.024;13.828;2023-04-28T01:49:38;5.30;;;4.73;;
9918;SDS011;4998;51.024;13.828;2023-04-28T01:52:05;4.87;;;4.37;;
9918;SDS011;4998;51.024;13.828;2023-04-28T01:54:32;5.03;;;4.33;;
9918;SDS011;4998;51.024;13.828;2023-04-28T01:56:59;4.97;;;4.40;;
9918;SDS011;4998;51.024;13.828;2023-04-28T01:59:29;5.10;;;4.33;;
9918;SDS011;4998;51.024;13.828;2023-04-28T02:01:56;4.90;;;4.40;;
9918;SDS011;4998;51.024;13.828;2023-04-28T02:04:23;5.33;;;4.47;;
9918;SDS011;4998;51.024;13.828;2023-04-28T02:06:49;6.90;;;5.10;;
9918;SDS011;4998;51.024;13.828;2023-04-28T02:09:17;6.23;;;5.10;;
9918;SDS011;4998;51.024;13.828;2023-04-28T02:11:44;5.60;;;4.87;;
9918;SDS011;4998;51.024;13.828;2023-04-28T02:14:11;4.90;;;4.40;;
9918;SDS011;4998;51.024;13.828;2023-04-28T02:16:39;5.20;;;4.70;;
9918;SDS011;4998;51.024;13.828;2023-04-28T02:19:06;4.93;;;4.43;;
9918;SDS011;4998;51.024;13.828;2023-04-28T02:21:33;6.40;;;5.13;;
9918;SDS011;4998;51.024;13.828;2023-04-28T02:24:00;5.23;;;4.73;;
9918;SDS011;4998;51.024;13.828;2023-04-28T02:26:27;4.90;;;4.30;;
9918;SDS011;4998;51.024;13.828;2023-04-28T02:28:54;5.03;;;4.60;;
9918;SDS011;4998;51.024;13.828;2023-04-28T02:31:21;11.73;;;5.10;;
9918;SDS011;4998;51.024;13.828;2023-04-28T02:33:49;5.67;;;5.17;;
9918;SDS011;4998;51.024;13.828;2023-04-28T02:36:17;5.57;;;4.63;;
9918;SDS011;4998;51.024;13.828;2023-04-28T02:38:44;8.13;;;4.70;;
9918;SDS011;4998;51.024;13.828;2023-04-28T02:41:11;6.57;;;4.93;;
9918;SDS011;4998;51.024;13.828;2023-04-28T02:43:39;5.53;;;4.67;;
9918;SDS011;4998;51.024;13.828;2023-04-28T02:46:06;6.13;;;5.07;;
9918;SDS011;4998;51.024;13.828;2023-04-28T02:48:33;5.43;;;4.93;;
9918;SDS011;4998;51.024;13.828;2023-04-28T02:51:02;6.20;;;5.10;;
9918;SDS011;4998;51.024;13.828;2023-04-28T02:53:30;6.10;;;4.97;;
9918;SDS011;4998;51.024;13.828;2023-04-28T02:55:57;7.60;;;5.50;;
9918;SDS011;4998;51.024;13.828;2023-04-28T02:58:26;5.30;;;4.80;;
9918;SDS011;4998;51.024;13.828;2023-04-28T03:00:53;5.03;;;4.53;;
9918;SDS011;4998;51.024;13.828;2023-04-28T03:03:20;8.13;;;5.20;;
9918;SDS011;4998;51.024;13.828;2023-04-28T03:05:47;6.83;;;5.40;;
9918;SDS011;4998;51.024;13.828;2023-04-28T03:08:15;6.23;;;4.73;;
9918;SDS011;4998;51.024;13.828;2023-04-28T03:10:43;5.33;;;4.37;;
9918;SDS011;4998;51.024;13.828;2023-04-28T03:13:10;6.50;;;5.17;;
9918;SDS011;4998;51.024;13.828;2023-04-28T03:15:37;5.67;;;5.00;;
9918;SDS011;4998;51.024;13.828;2023-04-28T03:18:04;4.47;;;4.07;;
9918;SDS011;4998;51.024;13.828;2023-04-28T03:20:31;6.27;;;4.60;;
9918;SDS011;4998;51.024;13.828;2023-04-28T03:22:58;5.10;;;4.60;;
9918;SDS011;4998;51.024;13.828;2023-04-28T03:25:27;5.33;;;4.63;;
9918;SDS011;4998;51.024;13.828;2023-04-28T03:27:54;6.33;;;4.50;;
9918;SDS011;4998;51.024;13.828;2023-04-28T03:30:21;5.23;;;4.73;;
9918;SDS011;4998;51.024;13.828;2023-04-28T03:32:48;5.00;;;4.50;;
9918;SDS011;4998;51.024;13.828;2023-04-28T03:35:15;5.33;;;4.53;;
9918;SDS011;4998;51.024;13.828;2023-04-28T03:37:42;4.77;;;4.37;;
9918;SDS011;4998;51.024;13.828;2023-04-28T03:40:10;8.50;;;4.60;;
9918;SDS011;4998;51.024;13.828;2023-04-28T03:42:38;5.27;;;4.50;;
9918;SDS011;4998;51.024;13.828;2023-04-28T03:45:06;4.50;;;4.03;;
9918;SDS011;4998;51.024;13.828;2023-04-28T03:47:34;5.30;;;4.80;;
9918;SDS011;4998;51.024;13.828;2023-04-28T03:50:01;5.50;;;4.70;;
9918;SDS011;4998;51.024;13.828;2023-04-28T03:52:28;7.60;;;4.90;;
9918;SDS011;4998;51.024;13.828;2023-04-28T03:54:55;6.63;;;4.77;;
9918;SDS011;4998;51.024;13.828;2023-04-28T03:57:22;10.53;;;4.40;;
9918;SDS011;4998;51.024;13.828;2023-04-28T03:59:50;5.40;;;4.50;;
9918;SDS011;4998;51.024;13.828;2023-04-28T04:02:17;6.03;;;4.93;;
9918;SDS011;4998;51.024;13.828;2023-04-28T04:04:44;5.20;;;4.70;;
9918;SDS011;4998;51.024;13.828;2023-04-28T04:07:12;5.23;;;4.23;;
9918;SDS011;4998;51.024;13.828;2023-04-28T04:09:39;8.10;;;4.90;;
9918;SDS011;4998;51.024;13.828;2023-04-28T04:12:06;6.40;;;4.70;;
9918;SDS011;4998;51.024;13.828;2023-04-28T04:14:33;6.77;;;5.00;;
9918;SDS011;4998;51.024;13.828;2023-04-28T04:17:01;5.13;;;4.63;;
9918;SDS011;4998;51.024;13.828;2023-04-28T04:19:28;5.97;;;4.63;;
9918;SDS011;4998;51.024;13.828;2023-04-28T04:21:55;5.70;;;4.17;;
9918;SDS011;4998;51.024;13.828;2023-04-28T04:24:22;6.43;;;4.77;;
9918;SDS011;4998;51.024;13.828;2023-04-28T04:26:49;5.30;;;4.60;;
9918;SDS011;4998;51.024;13.828;2023-04-28T04:29:16;6.20;;;4.50;;
9918;SDS011;4998;51.024;13.828;2023-04-28T04:31:43;7.07;;;4.40;;
9918;SDS011;4998;51.024;13.828;2023-04-28T04:34:11;7.03;;;4.80;;
9918;SDS011;4998;51.024;13.828;2023-04-28T04:36:38;5.40;;;4.67;;
9918;SDS011;4998;51.024;13.828;2023-04-28T04:39:05;5.33;;;4.50;;
9918;SDS011;4998;51.024;13.828;2023-04-28T04:41:32;6.23;;;5.03;;
9918;SDS011;4998;51.024;13.828;2023-04-28T04:43:59;6.10;;;4.60;;
9918;SDS011;4998;51.024;13.828;2023-04-28T04:46:26;4.83;;;4.40;;
9918;SDS011;4998;51.024;13.828;2023-04-28T04:48:53;5.20;;;4.70;;
9918;SDS011;4998;51.024;13.828;2023-04-28T04:51:22;6.00;;;4.40;;
9918;SDS011;4998;51.024;13.828;2023-04-28T04:53:49;5.40;;;4.33;;
9918;SDS011;4998;51.024;13.828;2023-04-28T04:56:16;5.97;;;4.83;;
9918;SDS011;4998;51.024;13.828;2023-04-28T04:58:43;5.50;;;4.73;;
9918;SDS011;4998;51.024;13.828;2023-04-28T05:01:10;6.13;;;4.33;;
9918;SDS011;4998;51.024;13.828;2023-04-28T05:03:37;6.83;;;5.43;;
9918;SDS011;4998;51.024;13.828;2023-04-28T05:06:04;5.83;;;4.60;;
9918;SDS011;4998;51.024;13.828;2023-04-28T05:08:33;8.10;;;4.77;;
9918;SDS011;4998;51.024;13.828;2023-04-28T05:10:59;6.33;;;4.73;;
9918;SDS011;4998;51.024;13.828;2023-04-28T05:13:27;4.80;;;4.10;;
9918;SDS011;4998;51.024;13.828;2023-04-28T05:15:54;5.53;;;4.60;;
9918;SDS011;4998;51.024;13.828;2023-04-28T05:18:21;6.47;;;4.30;;
9918;SDS011;4998;51.024;13.828;2023-04-28T05:20:48;5.27;;;4.53;;
9918;SDS011;4998;51.024;13.828;2023-04-28T05:23:15;5.70;;;4.53;;
9918;SDS011;4998;51.024;13.828;2023-04-28T05:25:43;8.27;;;4.90;;
9918;SDS011;4998;51.024;13.828;2023-04-28T05:28:10;4.87;;;4.30;;
9918;SDS011;4998;51.024;13.828;2023-04-28T05:30:37;6.03;;;4.60;;
9918;SDS011;4998;51.024;13.828;2023-04-28T05:33:04;7.57;;;4.30;;
9918;SDS011;4998;51.024;13.828;2023-04-28T05:35:31;7.20;;;5.10;;
9918;SDS011;4998;51.024;13.828;2023-04-28T05:37:58;6.20;;;4.87;;
9918;SDS011;4998;51.024;13.828;2023-04-28T05:40:26;7.90;;;4.63;;
9918;SDS011;4998;51.024;13.828;2023-04-28T05:42:55;6.20;;;5.27;;
9918;SDS011;4998;51.024;13.828;2023-04-28T05:45:22;6.43;;;5.20;;
9918;SDS011;4998;51.024;13.828;2023-04-28T05:47:49;6.77;;;4.53;;
9918;SDS011;4998;51.024;13.828;2023-04-28T05:50:16;7.30;;;4.33;;
9918;SDS011;4998;51.024;13.828;2023-04-28T05:52:43;4.97;;;4.40;;
9918;SDS011;4998;51.024;13.828;2023-04-28T05:55:10;6.43;;;4.73;;
9918;SDS011;4998;51.024;13.828;2023-04-28T05:57:37;8.60;;;5.20;;
9918;SDS011;4998;51.024;13.828;2023-04-28T06:00:06;7.07;;;5.20;;
9918;SDS011;4998;51.024;13.828;2023-04-28T06:02:34;7.50;;;5.13;;
9918;SDS011;4998;51.024;13.828;2023-04-28T06:05:01;6.73;;;4.40;;
9918;SDS011;4998;51.024;13.828;2023-04-28T06:07:28;9.50;;;4.93;;
9918;SDS011;4998;51.024;13.828;2023-04-28T06:09:55;6.20;;;5.17;;
9918;SDS011;4998;51.024;13.828;2023-04-28T06:12:22;6.30;;;5.17;;
9918;SDS011;4998;51.024;13.828;2023-04-28T06:14:50;5.77;;;4.63;;
9918;SDS011;4998;51.024;13.828;2023-04-28T06:17:20;8.57;;;4.90;;
9918;SDS011;4998;51.024;13.828;2023-04-28T06:19:48;5.37;;;4.50;;
9918;SDS011;4998;51.024;13.828;2023-04-28T06:22:18;6.10;;;4.67;;
9918;SDS011;4998;51.024;13.828;2023-04-28T06:24:45;7.30;;;5.17;;
9918;SDS011;4998;51.024;13.828;2023-04-28T06:27:12;11.73;;;4.90;;
9918;SDS011;4998;51.024;13.828;2023-04-28T06:29:39;6.40;;;4.70;;
9918;SDS011;4998;51.024;13.828;2023-04-28T06:32:06;6.10;;;4.53;;
9918;SDS011;4998;51.024;13.828;2023-04-28T06:34:36;6.13;;;4.73;;
9918;SDS011;4998;51.024;13.828;2023-04-28T06:37:03;7.07;;;4.60;;
9918;SDS011;4998;51.024;13.828;2023-04-28T06:39:30;6.43;;;4.33;;
9918;SDS011;4998;51.024;13.828;2023-04-28T06:41:57;5.53;;;4.60;;
9918;SDS011;4998;51.024;13.828;2023-04-28T06:44:26;6.10;;;4.70;;
9918;SDS011;4998;51.024;13.828;2023-04-28T06:46:53;7.23;;;5.07;;
9918;SDS011;4998;51.024;13.828;2023-04-28T06:49:20;7.90;;;5.00;;
9918;SDS011;4998;51.024;13.828;2023-04-28T06:51:48;7.20;;;4.83;;
9918;SDS011;4998;51.024;13.828;2023-04-28T06:54:15;8.30;;;4.97;;
9918;SDS011;4998;51.024;13.828;2023-04-28T06:56:42;7.57;;;5.33;;
9918;SDS011;4998;51.024;13.828;2023-04-28T06:59:09;5.93;;;4.67;;
9918;SDS011;4998;51.024;13.828;2023-04-28T07:01:36;7.77;;;4.73;;
9918;SDS011;4998;51.024;13.828;2023-04-28T07:04:03;7.07;;;5.30;;
9918;SDS011;4998;51.024;13.828;2023-04-28T07:06:30;8.60;;;5.30;;
9918;SDS011;4998;51.024;13.828;2023-04-28T07:08:59;8.70;;;4.70;;
9918;SDS011;4998;51.024;13.828;2023-04-28T07:11:26;4.60;;;3.90;;
9918;SDS011;4998;51.024;13.828;2023-04-28T07:13:53;5.00;;;4.50;;
9918;SDS011;4998;51.024;13.828;2023-04-28T07:16:20;4.57;;;4.17;;
9918;SDS011;4998;51.024;13.828;2023-04-28T07:18:47;6.90;;;4.63;;
9918;SDS011;4998;51.024;13.828;2023-04-28T07:21:14;11.40;;;5.20;;
9918;SDS011;4998;51.024;13.828;2023-04-28T07:23:41;5.70;;;4.63;;
9918;SDS011;4998;51.024;13.828;2023-04-28T07:26:10;6.97;;;5.67;;
9918;SDS011;4998;51.024;13.828;2023-04-28T07:28:40;8.13;;;4.90;;
9918;SDS011;4998;51.024;13.828;2023-04-28T07:31:07;5.50;;;4.53;;
9918;SDS011;4998;51.024;13.828;2023-04-28T07:33:34;5.93;;;4.63;;
9918;SDS011;4998;51.024;13.828;2023-04-28T07:36:01;8.83;;;4.50;;
9918;SDS011;4998;51.024;13.828;2023-04-28T07:38:28;6.77;;;4.73;;
9918;SDS011;4998;51.024;13.828;2023-04-28T07:40:55;6.10;;;4.37;;
9918;SDS011;4998;51.024;13.828;2023-04-28T07:43:24;12.97;;;4.50;;
9918;SDS011;4998;51.024;13.828;2023-04-28T07:45:52;6.87;;;4.83;;
9918;SDS011;4998;51.024;13.828;2023-04-28T07:48:19;5.67;;;4.07;;
9918;SDS011;4998;51.024;13.828;2023-04-28T07:50:46;7.23;;;5.20;;
9918;SDS011;4998;51.024;13.828;2023-04-28T07:53:13;7.80;;;4.70;;
9918;SDS011;4998;51.024;13.828;2023-04-28T07:55:40;4.87;;;4.47;;
9918;SDS011;4998;51.024;13.828;2023-04-28T07:58:09;5.23;;;4.40;;
9918;SDS011;4998;51.024;13.828;2023-04-28T08:00:37;4.73;;;4.33;;
9918;SDS011;4998;51.024;13.828;2023-04-28T08:03:04;6.03;;;4.00;;
9918;SDS011;4998;51.024;13.828;2023-04-28T08:05:31;7.60;;;4.67;;
9918;SDS011;4998;51.024;13.828;2023-04-28T08:07:58;5.47;;;4.10;;
9918;SDS011;4998;51.024;13.828;2023-04-28T08:10:27;5.43;;;3.93;;
9918;SDS011;4998;51.024;13.828;2023-04-28T08:12:54;5.37;;;4.60;;
9918;SDS011;4998;51.024;13.828;2023-04-28T08:15:21;7.77;;;4.43;;
9918;SDS011;4998;51.024;13.828;2023-04-28T08:17:49;10.90;;;3.97;;
9918;SDS011;4998;51.024;13.828;2023-04-28T08:20:17;7.00;;;4.20;;
9918;SDS011;4998;51.024;13.828;2023-04-28T08:22:45;5.30;;;4.27;;
9918;SDS011;4998;51.024;13.828;2023-04-28T08:25:12;7.53;;;4.40;;
9918;SDS011;4998;51.024;13.828;2023-04-28T08:27:39;5.50;;;4.27;;
9918;SDS011;4998;51.024;13.828;2023-04-28T08:30:06;4.87;;;4.10;;
9918;SDS011;4998;51.024;13.828;2023-04-28T08:32:34;7.23;;;4.00;;
9918;SDS011;4998;51.024;13.828;2023-04-28T08:35:03;6.10;;;4.20;;
9918;SDS011;4998;51.024;13.828;2023-04-28T08:37:30;4.73;;;4.13;;
9918;SDS011;4998;51.024;13.828;2023-04-28T08:39:57;5.50;;;4.10;;
9918;SDS011;4998;51.024;13.828;2023-04-28T08:42:29;5.90;;;3.77;;
9918;SDS011;4998;51.024;13.828;2023-04-28T08:44:57;5.27;;;3.90;;
9918;SDS011;4998;51.024;13.828;2023-04-28T08:47:26;4.60;;;3.87;;
9918;SDS011;4998;51.024;13.828;2023-04-28T08:49:59;4.27;;;3.70;;
9918;SDS011;4998;51.024;13.828;2023-04-28T08:52:30;6.30;;;4.13;;
9918;SDS011;4998;51.024;13.828;2023-04-28T08:54:57;4.77;;;4.30;;
9918;SDS011;4998;51.024;13.828;2023-04-28T08:57:25;5.53;;;3.10;;
9918;SDS011;4998;51.024;13.828;2023-04-28T08:59:53;6.37;;;3.70;;
9918;SDS011;4998;51.024;13.828;2023-04-28T09:02:20;4.70;;;3.40;;
9918;SDS011;4998;51.024;13.828;2023-04-28T09:04:47;4.47;;;3.50;;
9918;SDS011;4998;51.024;13.828;2023-04-28T09:07:16;3.97;;;3.57;;
9918;SDS011;4998;51.024;13.828;2023-04-28T09:09:43;5.37;;;3.70;;
9918;SDS011;4998;51.024;13.828;2023-04-28T09:12:10;3.77;;;3.33;;
9918;SDS011;4998;51.024;13.828;2023-04-28T09:14:37;5.10;;;3.67;;
9918;SDS011;4998;51.024;13.828;2023-04-28T09:17:09;3.83;;;3.07;;
9918;SDS011;4998;51.024;13.828;2023-04-28T09:19:37;5.67;;;3.90;;
9918;SDS011;4998;51.024;13.828;2023-04-28T09:22:07;4.13;;;3.50;;
9918;SDS011;4998;51.024;13.828;2023-04-28T09:24:36;5.10;;;3.47;;
9918;SDS011;4998;51.024;13.828;2023-04-28T09:27:05;4.97;;;4.00;;
9918;SDS011;4998;51.024;13.828;2023-04-28T09:29:35;4.57;;;3.70;;
9918;SDS011;4998;51.024;13.828;2023-04-28T09:32:12;5.10;;;3.47;;
9918;SDS011;4998;51.024;13.828;2023-04-28T09:34:43;6.93;;;3.07;;
9918;SDS011;4998;51.024;13.828;2023-04-28T09:37:14;3.77;;;3.10;;
9918;SDS011;4998;51.024;13.828;2023-04-28T09:39:44;4.70;;;2.80;;
9918;SDS011;4998;51.024;13.828;2023-04-28T09:42:32;3.20;;;2.90;;
9918;SDS011;4998;51.024;13.828;2023-04-28T09:45:00;3.93;;;2.80;;
9918;SDS011;4998;51.024;13.828;2023-04-28T09:47:28;5.10;;;3.07;;
9918;SDS011;4998;51.024;13.828;2023-04-28T09:49:56;2.80;;;2.60;;
9918;SDS011;4998;51.024;13.828;2023-04-28T09:52:25;6.27;;;2.80;;
9918;SDS011;4998;51.024;13.828;2023-04-28T09:54:54;3.50;;;2.53;;
9918;SDS011;4998;51.024;13.828;2023-04-28T09:57:22;3.77;;;3.10;;
9918;SDS011;4998;51.024;13.828;2023-04-28T09:59:50;4.70;;;2.63;;
9918;SDS011;4998;51.024;13.828;2023-04-28T10:02:19;3.23;;;2.93;;
9918;SDS011;4998;51.024;13.828;2023-04-28T10:04:47;3.97;;;2.93;;
9918;SDS011;4998;51.024;13.828;2023-04-28T10:07:15;3.87;;;2.57;;
9918;SDS011;4998;51.024;13.828;2023-04-28T10:09:44;4.13;;;2.47;;
9918;SDS011;4998;51.024;13.828;2023-04-28T10:12:16;3.47;;;2.80;;
9918;SDS011;4998;51.024;13.828;2023-04-28T10:14:43;4.20;;;2.60;;
9918;SDS011;4998;51.024;13.828;2023-04-28T10:17:14;2.67;;;2.30;;
9918;SDS011;4998;51.024;13.828;2023-04-28T10:19:42;3.30;;;3.00;;
9918;SDS011;4998;51.024;13.828;2023-04-28T10:22:27;3.60;;;3.20;;
9918;SDS011;4998;51.024;13.828;2023-04-28T10:27:53;3.33;;;2.47;;
9918;SDS011;4998;51.024;13.828;2023-04-28T10:30:20;3.03;;;2.53;;
9918;SDS011;4998;51.024;13.828;2023-04-28T10:33:21;5.17;;;2.50;;
9918;SDS011;4998;51.024;13.828;2023-04-28T10:35:50;3.70;;;2.43;;
9918;SDS011;4998;51.024;13.828;2023-04-28T10:38:17;4.33;;;2.70;;
9918;SDS011;4998;51.024;13.828;2023-04-28T10:40:46;2.93;;;2.40;;
9918;SDS011;4998;51.024;13.828;2023-04-28T10:43:31;3.77;;;2.97;;
9918;SDS011;4998;51.024;13.828;2023-04-28T10:46:03;2.80;;;2.30;;
9918;SDS011;4998;51.024;13.828;2023-04-28T10:51:29;3.60;;;2.60;;
9918;SDS011;4998;51.024;13.828;2023-04-28T10:54:06;4.70;;;3.30;;
9918;SDS011;4998;51.024;13.828;2023-04-28T10:56:41;7.00;;;5.47;;
9918;SDS011;4998;51.024;13.828;2023-04-28T10:59:45;6.63;;;3.70;;
9918;SDS011;4998;51.024;13.828;2023-04-28T11:05:15;5.43;;;3.40;;
9918;SDS011;4998;51.024;13.828;2023-04-28T11:11:12;7.47;;;5.20;;
9918;SDS011;4998;51.024;13.828;2023-04-28T11:13:40;6.90;;;4.57;;
9918;SDS011;4998;51.024;13.828;2023-04-28T11:16:12;8.47;;;4.73;;
9918;SDS011;4998;51.024;13.828;2023-04-28T11:18:57;5.57;;;4.03;;
9918;SDS011;4998;51.024;13.828;2023-04-28T11:21:28;3.40;;;2.83;;
9918;SDS011;4998;51.024;13.828;2023-04-28T11:23:57;3.50;;;3.00;;
9918;SDS011;4998;51.024;13.828;2023-04-28T11:26:24;3.57;;;2.80;;
9918;SDS011;4998;51.024;13.828;2023-04-28T11:28:54;5.23;;;2.87;;
9918;SDS011;4998;51.024;13.828;2023-04-28T11:31:24;3.00;;;2.70;;
9918;SDS011;4998;51.024;13.828;2023-04-28T11:33:53;3.47;;;3.17;;
9918;SDS011;4998;51.024;13.828;2023-04-28T11:36:30;3.23;;;2.93;;
9918;SDS011;4998;51.024;13.828;2023-04-28T11:39:00;3.60;;;3.00;;
9918;SDS011;4998;51.024;13.828;2023-04-28T11:41:29;3.30;;;3.00;;
9918;SDS011;4998;51.024;13.828;2023-04-28T11:43:58;6.13;;;3.70;;
9918;SDS011;4998;51.024;13.828;2023-04-28T11:46:27;4.03;;;3.63;;
9918;SDS011;4998;51.024;13.828;2023-04-28T11:49:00;7.50;;;4.10;;
9918;SDS011;4998;51.024;13.828;2023-04-28T11:51:30;5.80;;;4.00;;
9918;SDS011;4998;51.024;13.828;2023-04-28T11:53:58;5.57;;;3.83;;
9918;SDS011;4998;51.024;13.828;2023-04-28T11:56:25;4.53;;;4.13;;
9918;SDS011;4998;51.024;13.828;2023-04-28T11:58:59;3.80;;;3.50;;
9918;SDS011;4998;51.024;13.828;2023-04-28T12:01:29;4.70;;;4.20;;
9918;SDS011;4998;51.024;13.828;2023-04-28T12:03:58;5.43;;;3.83;;
9918;SDS011;4998;51.024;13.828;2023-04-28T12:06:25;4.90;;;3.60;;
9918;SDS011;4998;51.024;13.828;2023-04-28T12:08:54;5.27;;;3.67;;
9918;SDS011;4998;51.024;13.828;2023-04-28T12:11:22;4.60;;;3.43;;
9918;SDS011;4998;51.024;13.828;2023-04-28T12:14:04;4.67;;;3.20;;
9918;SDS011;4998;51.024;13.828;2023-04-28T12:16:37;5.60;;;3.77;;
9918;SDS011;4998;51.024;13.828;2023-04-28T12:19:08;4.60;;;3.40;;
9918;SDS011;4998;51.024;13.828;2023-04-28T12:21:36;5.47;;;3.63;;
9918;SDS011;4998;51.024;13.828;2023-04-28T12:24:17;10.40;;;3.77;;
9918;SDS011;4998;51.024;13.828;2023-04-28T12:26:45;4.23;;;3.53;;
9918;SDS011;4998;51.024;13.828;2023-04-28T12:32:05;5.97;;;4.77;;
9918;SDS011;4998;51.024;13.828;2023-04-28T12:34:32;5.70;;;4.40;;
9918;SDS011;4998;51.024;13.828;2023-04-28T12:37:00;8.67;;;5.27;;
9918;SDS011;4998;51.024;13.828;2023-04-28T12:39:29;6.40;;;4.73;;
9918;SDS011;4998;51.024;13.828;2023-04-28T12:41:56;5.43;;;4.90;;
9918;SDS011;4998;51.024;13.828;2023-04-28T12:44:24;5.67;;;5.17;;
9918;SDS011;4998;51.024;13.828;2023-04-28T12:46:53;5.40;;;4.40;;
9918;SDS011;4998;51.024;13.828;2023-04-28T12:49:21;5.90;;;5.33;;
9918;SDS011;4998;51.024;13.828;2023-04-28T12:51:48;7.50;;;5.80;;
9918;SDS011;4998;51.024;13.828;2023-04-28T12:54:15;9.57;;;5.57;;
9918;SDS011;4998;51.024;13.828;2023-04-28T12:56:42;9.20;;;5.20;;
9918;SDS011;4998;51.024;13.828;2023-04-28T12:59:09;6.13;;;5.33;;
9918;SDS011;4998;51.024;13.828;2023-04-28T13:01:36;8.47;;;5.33;;
9918;SDS011;4998;51.024;13.828;2023-04-28T13:04:04;7.63;;;5.47;;
9918;SDS011;4998;51.024;13.828;2023-04-28T13:06:32;7.77;;;5.93;;
9918;SDS011;4998;51.024;13.828;2023-04-28T13:08:59;10.07;;;5.30;;
9918;SDS011;4998;51.024;13.828;2023-04-28T13:11:27;8.40;;;5.73;;
9918;SDS011;4998;51.024;13.828;2023-04-28T13:13:55;6.67;;;5.60;;
9918;SDS011;4998;51.024;13.828;2023-04-28T13:16:22;6.27;;;5.40;;
9918;SDS011;4998;51.024;13.828;2023-04-28T13:18:53;7.70;;;6.17;;
9918;SDS011;4998;51.024;13.828;2023-04-28T13:21:21;5.60;;;5.00;;
9918;SDS011;4998;51.024;13.828;2023-04-28T13:23:52;6.73;;;5.50;;
9918;SDS011;4998;51.024;13.828;2023-04-28T13:26:20;6.47;;;5.73;;
9918;SDS011;4998;51.024;13.828;2023-04-28T13:28:48;5.73;;;5.20;;
9918;SDS011;4998;51.024;13.828;2023-04-28T13:31:16;7.17;;;5.60;;
9918;SDS011;4998;51.024;13.828;2023-04-28T13:33:43;12.33;;;5.40;;
9918;SDS011;4998;51.024;13.828;2023-04-28T13:36:10;6.27;;;5.30;;
9918;SDS011;4998;51.024;13.828;2023-04-28T13:38:37;7.93;;;5.10;;
9918;SDS011;4998;51.024;13.828;2023-04-28T13:41:06;6.37;;;5.23;;
9918;SDS011;4998;51.024;13.828;2023-04-28T13:43:33;6.90;;;6.00;;
9918;SDS011;4998;51.024;13.828;2023-04-28T13:46:00;8.47;;;5.90;;
9918;SDS011;4998;51.024;13.828;2023-04-28T13:48:32;8.97;;;5.83;;
9918;SDS011;4998;51.024;13.828;2023-04-28T13:51:00;6.70;;;5.30;;
9918;SDS011;4998;51.024;13.828;2023-04-28T13:53:27;5.43;;;4.90;;
9918;SDS011;4998;51.024;13.828;2023-04-28T13:55:54;7.37;;;5.17;;
9918;SDS011;4998;51.024;13.828;2023-04-28T13:58:23;6.10;;;5.50;;
9918;SDS011;4998;51.024;13.828;2023-04-28T14:00:50;7.17;;;5.13;;
9918;SDS011;4998;51.024;13.828;2023-04-28T14:03:18;5.37;;;4.87;;
9918;SDS011;4998;51.024;13.828;2023-04-28T14:05:46;6.30;;;5.20;;
9918;SDS011;4998;51.024;13.828;2023-04-28T14:08:13;6.57;;;5.50;;
9918;SDS011;4998;51.024;13.828;2023-04-28T14:10:40;8.27;;;5.17;;
9918;SDS011;4998;51.024;13.828;2023-04-28T14:13:07;5.83;;;5.17;;
9918;SDS011;4998;51.024;13.828;2023-04-28T14:15:36;11.00;;;6.03;;
9918;SDS011;4998;51.024;13.828;2023-04-28T14:18:04;7.87;;;5.57;;
9918;SDS011;4998;51.024;13.828;2023-04-28T14:20:31;6.50;;;5.07;;
9918;SDS011;4998;51.024;13.828;2023-04-28T14:22:58;6.63;;;5.10;;
9918;SDS011;4998;51.024;13.828;2023-04-28T14:25:25;6.10;;;5.50;;
9918;SDS011;4998;51.024;13.828;2023-04-28T14:27:52;6.17;;;5.57;;
9918;SDS011;4998;51.024;13.828;2023-04-28T14:30:20;5.43;;;4.70;;
9918;SDS011;4998;51.024;13.828;2023-04-28T14:32:49;6.53;;;5.50;;
9918;SDS011;4998;51.024;13.828;2023-04-28T14:35:16;6.17;;;4.50;;
9918;SDS011;4998;51.024;13.828;2023-04-28T14:37:45;6.60;;;5.03;;
9918;SDS011;4998;51.024;13.828;2023-04-28T14:40:12;7.47;;;4.70;;
9918;SDS011;4998;51.024;13.828;2023-04-28T14:42:40;5.00;;;4.30;;
9918;SDS011;4998;51.024;13.828;2023-04-28T14:45:08;4.90;;;4.40;;
9918;SDS011;4998;51.024;13.828;2023-04-28T14:47:36;8.23;;;4.40;;
9918;SDS011;4998;51.024;13.828;2023-04-28T14:50:06;5.87;;;4.80;;
9918;SDS011;4998;51.024;13.828;2023-04-28T14:52:35;5.70;;;4.60;;
9918;SDS011;4998;51.024;13.828;2023-04-28T14:55:02;7.23;;;4.60;;
9918;SDS011;4998;51.024;13.828;2023-04-28T14:57:30;5.63;;;4.60;;
9918;SDS011;4998;51.024;13.828;2023-04-28T14:59:58;5.10;;;4.30;;
9918;SDS011;4998;51.024;13.828;2023-04-28T15:02:26;7.37;;;4.30;;
9918;SDS011;4998;51.024;13.828;2023-04-28T15:04:53;5.27;;;4.50;;
9918;SDS011;4998;51.024;13.828;2023-04-28T15:07:23;6.60;;;5.07;;
9918;SDS011;4998;51.024;13.828;2023-04-28T15:09:55;5.80;;;4.10;;
9918;SDS011;4998;51.024;13.828;2023-04-28T15:12:22;5.63;;;4.90;;
9918;SDS011;4998;51.024;13.828;2023-04-28T15:14:50;4.97;;;4.47;;
9918;SDS011;4998;51.024;13.828;2023-04-28T15:17:17;5.33;;;4.67;;
9918;SDS011;4998;51.024;13.828;2023-04-28T15:19:45;4.67;;;3.80;;
9918;SDS011;4998;51.024;13.828;2023-04-28T15:22:12;8.30;;;4.57;;